createdAt,value
2022-10-27T00:02:10.474Z,11.50
2022-10-27T00:04:38.062Z,11.70
2022-10-27T00:07:05.594Z,11.70
2022-10-27T00:09:33.163Z,11.60
2022-10-27T00:12:00.699Z,11.60
2022-10-27T00:14:28.232Z,11.50
2022-10-27T00:16:55.769Z,11.50
2022-10-27T00:19:25.606Z,11.50
2022-10-27T00:21:51.952Z,11.40
2022-10-27T00:24:19.480Z,11.50
2022-10-27T00:26:47.832Z,11.40
2022-10-27T00:29:15.381Z,11.40
2022-10-27T00:31:42.919Z,11.40
2022-10-27T00:34:10.513Z,11.40
2022-10-27T00:36:38.071Z,11.40
2022-10-27T00:39:06.321Z,11.40
2022-10-27T00:41:36.933Z,11.40
2022-10-27T00:44:22.870Z,11.40
2022-10-27T00:46:50.434Z,11.40
2022-10-27T00:49:17.962Z,11.30
2022-10-27T00:51:51.219Z,11.50
2022-10-27T00:54:18.822Z,11.50
2022-10-27T00:56:46.369Z,11.50
2022-10-27T00:59:13.902Z,11.40
2022-10-27T01:01:41.609Z,11.30
2022-10-27T01:04:09.006Z,11.30
2022-10-27T01:06:36.567Z,11.20
2022-10-27T01:09:04.155Z,11.10
2022-10-27T01:11:31.680Z,11.10
2022-10-27T01:13:59.264Z,11.10
2022-10-27T01:16:32.924Z,11.10
2022-10-27T01:19:16.103Z,11.00
2022-10-27T01:21:49.682Z,11.00
2022-10-27T01:24:45.186Z,11.00
2022-10-27T01:27:15.272Z,11.00
2022-10-27T01:30:04.064Z,10.90
2022-10-27T01:32:52.682Z,10.90
2022-10-27T01:35:20.690Z,11.20
2022-10-27T01:37:54.333Z,11.20
2022-10-27T01:40:21.983Z,11.20
2022-10-27T01:42:49.823Z,11.10
2022-10-27T01:45:17.029Z,11.10
2022-10-27T01:47:44.633Z,11.10
2022-10-27T01:50:12.156Z,11.00
2022-10-27T01:52:42.271Z,11.00
2022-10-27T01:55:15.463Z,11.20
2022-10-27T01:57:45.698Z,11.50
2022-10-27T02:00:14.010Z,11.40
2022-10-27T02:02:53.963Z,11.30
2022-10-27T02:05:33.312Z,11.30
2022-10-27T02:08:03.751Z,11.20
2022-10-27T02:10:36.846Z,11.10
2022-10-27T02:13:04.380Z,11.10
2022-10-27T02:15:31.974Z,11.00
2022-10-27T02:18:11.456Z,10.90
2022-10-27T02:20:39.045Z,10.80
2022-10-27T02:23:06.577Z,11.00
2022-10-27T02:25:34.117Z,11.00
2022-10-27T02:28:02.477Z,10.90
2022-10-27T02:30:30.003Z,10.80
2022-10-27T02:32:57.551Z,10.70
2022-10-27T02:35:25.112Z,10.90
2022-10-27T02:37:52.671Z,10.90
2022-10-27T02:40:20.215Z,10.80
2022-10-27T02:42:47.911Z,10.70
2022-10-27T02:45:15.322Z,10.70
2022-10-27T02:47:42.869Z,10.60
2022-10-27T02:50:11.220Z,10.50
2022-10-27T02:52:38.772Z,10.50
2022-10-27T02:55:06.409Z,10.50
2022-10-27T02:57:34.364Z,10.40
2022-10-27T03:00:01.901Z,10.60
2022-10-27T03:02:29.448Z,10.60
2022-10-27T03:05:01.621Z,10.50
2022-10-27T03:07:29.106Z,10.50
2022-10-27T03:09:56.664Z,10.50
2022-10-27T03:12:24.217Z,10.40
2022-10-27T03:14:51.769Z,10.40
2022-10-27T03:17:19.295Z,10.40
2022-10-27T03:19:47.429Z,10.30
2022-10-27T03:22:14.967Z,10.30
2022-10-27T03:24:42.479Z,10.30
2022-10-27T03:27:10.053Z,10.30
2022-10-27T03:29:38.400Z,10.20
2022-10-27T03:32:05.909Z,10.20
2022-10-27T03:34:33.462Z,10.20
2022-10-27T03:37:01.766Z,10.20
2022-10-27T03:39:29.352Z,10.20
2022-10-27T03:41:56.872Z,10.20
2022-10-27T03:44:24.404Z,10.10
2022-10-27T03:46:52.717Z,10.20
2022-10-27T03:49:20.329Z,10.10
2022-10-27T03:51:47.880Z,10.10
2022-10-27T03:54:15.448Z,10.10
2022-10-27T03:56:43.358Z,10.30
2022-10-27T03:59:10.958Z,10.30
2022-10-27T04:01:38.686Z,10.30
2022-10-27T04:04:06.798Z,10.10
2022-10-27T04:06:34.327Z,10.10
2022-10-27T04:09:01.920Z,10.00
2022-10-27T04:11:29.440Z,10.00
2022-10-27T04:13:56.978Z,9.90
2022-10-27T04:16:24.480Z,9.90
2022-10-27T04:18:52.088Z,9.90
2022-10-27T04:21:19.588Z,9.90
2022-10-27T04:23:47.136Z,9.90
2022-10-27T04:26:14.732Z,10.10
2022-10-27T04:28:42.278Z,10.10
2022-10-27T04:31:09.802Z,10.10
2022-10-27T04:33:37.413Z,10.00
2022-10-27T04:36:04.948Z,10.00
2022-10-27T04:38:34.933Z,9.90
2022-10-27T04:41:03.051Z,9.90
2022-10-27T04:43:30.606Z,10.10
2022-10-27T04:45:58.157Z,10.10
2022-10-27T04:48:25.722Z,10.30
2022-10-27T04:50:53.279Z,10.50
2022-10-27T04:53:20.832Z,10.70
2022-10-27T04:55:48.405Z,10.50
2022-10-27T04:58:15.939Z,10.30
2022-10-27T05:00:43.492Z,10.20
2022-10-27T05:03:11.084Z,10.30
2022-10-27T05:05:38.647Z,10.20
2022-10-27T05:08:06.181Z,10.10
2022-10-27T05:10:33.783Z,10.20
2022-10-27T05:13:02.111Z,10.20
2022-10-27T05:15:29.667Z,10.20
2022-10-27T05:17:57.242Z,10.10
2022-10-27T05:20:24.773Z,9.90
2022-10-27T05:22:52.300Z,9.80
2022-10-27T05:25:20.632Z,10.00
2022-10-27T05:27:48.195Z,10.00
2022-10-27T05:30:15.722Z,9.90
2022-10-27T05:32:44.964Z,10.00
2022-10-27T05:35:10.829Z,9.90
2022-10-27T05:37:38.365Z,9.80
2022-10-27T05:40:08.350Z,9.70
2022-10-27T05:42:35.786Z,9.60
2022-10-27T05:45:03.313Z,9.60
2022-10-27T05:47:30.927Z,9.70
2022-10-27T05:49:58.482Z,9.70
2022-10-27T05:52:26.028Z,9.60
2022-10-27T05:54:53.604Z,9.60
2022-10-27T05:57:21.193Z,9.50
2022-10-27T05:59:49.489Z,9.40
2022-10-27T06:02:17.195Z,9.40
2022-10-27T06:04:44.625Z,9.30
2022-10-27T06:07:12.214Z,9.30
2022-10-27T06:09:39.741Z,9.20
2022-10-27T06:12:07.290Z,9.20
2022-10-27T06:14:34.827Z,9.20
2022-10-27T06:17:03.160Z,9.20
2022-10-27T06:19:30.817Z,9.20
2022-10-27T06:21:58.297Z,9.20
2022-10-27T06:24:25.893Z,9.20
2022-10-27T06:26:56.840Z,9.20
2022-10-27T06:29:21.736Z,9.20
2022-10-27T06:31:49.302Z,9.20
2022-10-27T06:34:16.837Z,9.20
2022-10-27T06:36:45.141Z,9.20
2022-10-27T06:39:13.021Z,9.20
2022-10-27T06:41:40.642Z,9.30
2022-10-27T06:44:08.160Z,9.30
2022-10-27T06:46:35.740Z,9.30
2022-10-27T06:49:03.315Z,9.30
2022-10-27T06:51:30.815Z,9.50
2022-10-27T06:53:58.482Z,9.80
2022-10-27T06:56:26.012Z,9.80
2022-10-27T06:58:54.296Z,9.80
2022-10-27T07:01:21.970Z,9.70
2022-10-27T07:03:49.486Z,9.70
2022-10-27T07:06:16.998Z,9.70
2022-10-27T07:08:44.639Z,9.90
2022-10-27T07:11:12.146Z,10.20
2022-10-27T07:13:39.681Z,10.20
2022-10-27T07:16:07.360Z,10.10
2022-10-27T07:18:34.898Z,10.10
2022-10-27T07:21:02.454Z,10.00
2022-10-27T07:23:30.073Z,10.00
2022-10-27T07:25:58.382Z,10.00
2022-10-27T07:28:25.941Z,10.00
2022-10-27T07:30:53.523Z,10.20
2022-10-27T07:33:21.899Z,10.20
2022-10-27T07:35:49.358Z,10.20
2022-10-27T07:38:16.924Z,10.20
2022-10-27T07:40:44.482Z,10.20
2022-10-27T07:43:12.014Z,10.40
2022-10-27T07:45:39.584Z,10.40
2022-10-27T07:48:07.147Z,10.30
2022-10-27T07:50:34.704Z,10.30
2022-10-27T07:53:02.266Z,10.20
2022-10-27T07:55:29.852Z,10.20
2022-10-27T07:58:03.008Z,10.20
2022-10-27T08:00:30.591Z,10.20
2022-10-27T08:03:00.870Z,10.20
2022-10-27T08:05:28.396Z,10.20
2022-10-27T08:07:59.434Z,10.50
2022-10-27T08:10:26.962Z,10.50
2022-10-27T08:12:54.486Z,10.50
2022-10-27T08:15:22.073Z,10.60
2022-10-27T08:17:55.270Z,10.60
2022-10-27T08:20:22.868Z,10.60
2022-10-27T08:22:56.839Z,10.70
2022-10-27T08:25:24.379Z,10.70
2022-10-27T08:27:52.109Z,10.70
2022-10-27T08:30:19.498Z,10.80
2022-10-27T08:32:47.042Z,10.80
2022-10-27T08:35:14.646Z,10.80
2022-10-27T08:37:43.179Z,10.90
2022-10-27T08:40:10.796Z,11.00
2022-10-27T08:42:44.257Z,11.00
2022-10-27T08:45:27.217Z,11.00
2022-10-27T08:47:54.831Z,11.30
2022-10-27T08:50:22.314Z,11.30
2022-10-27T08:53:04.720Z,11.30
2022-10-27T08:55:34.656Z,11.40
2022-10-27T08:58:33.088Z,11.40
2022-10-27T09:01:03.246Z,11.40
2022-10-27T09:03:50.039Z,11.80
2022-10-27T09:06:32.260Z,12.10
2022-10-27T09:09:17.615Z,12.10
2022-10-27T09:11:53.927Z,12.10
2022-10-27T09:14:44.225Z,12.40
2022-10-27T09:17:16.208Z,12.40
2022-10-27T09:19:43.787Z,12.50
2022-10-27T09:22:18.045Z,12.50
2022-10-27T09:24:45.571Z,12.50
2022-10-27T09:27:13.102Z,12.50
2022-10-27T09:29:40.679Z,12.50
2022-10-27T09:32:08.231Z,12.60
2022-10-27T09:34:54.434Z,12.70
2022-10-27T09:37:21.977Z,12.80
2022-10-27T09:39:49.523Z,13.00
2022-10-27T09:42:17.852Z,13.20
2022-10-27T09:45:00.047Z,13.20
2022-10-27T09:47:28.639Z,13.30
2022-10-27T09:49:56.071Z,13.50
2022-10-27T09:52:37.042Z,13.70
2022-10-27T09:55:04.593Z,14.00
2022-10-27T09:57:35.189Z,14.20
2022-10-27T10:00:03.527Z,14.40
2022-10-27T10:02:34.075Z,14.40
2022-10-27T10:05:01.509Z,14.50
2022-10-27T10:07:37.937Z,14.60
2022-10-27T10:10:24.453Z,14.90
2022-10-27T10:12:49.862Z,14.80
2022-10-27T10:15:17.097Z,15.00
2022-10-27T10:17:51.569Z,15.30
2022-10-27T10:20:31.612Z,15.20
2022-10-27T10:22:59.027Z,15.40
2022-10-27T10:25:27.337Z,15.70
2022-10-27T10:28:03.816Z,15.60
2022-10-27T10:30:34.270Z,15.80
2022-10-27T10:33:01.792Z,15.90
2022-10-27T10:35:50.666Z,16.00
2022-10-27T10:38:24.228Z,16.40
2022-10-27T10:41:06.579Z,16.50
2022-10-27T10:43:34.114Z,16.60
2022-10-27T10:46:01.661Z,16.70
2022-10-27T10:48:40.811Z,16.80
2022-10-27T10:51:08.355Z,16.90
2022-10-27T10:53:35.898Z,17.10
2022-10-27T10:56:03.472Z,17.20
2022-10-27T10:58:31.030Z,17.30
2022-10-27T11:01:01.099Z,17.50
2022-10-27T11:03:28.598Z,17.60
2022-10-27T11:06:05.317Z,17.80
2022-10-27T11:08:39.630Z,18.00
2022-10-27T11:11:03.479Z,18.20
2022-10-27T11:16:04.767Z,18.70
2022-10-27T11:18:34.968Z,18.80
2022-10-27T11:21:32.873Z,18.90
2022-10-27T11:24:08.971Z,19.20
2022-10-27T11:26:36.527Z,19.30
2022-10-27T11:29:19.205Z,19.40
2022-10-27T11:32:04.640Z,19.50
2022-10-27T11:34:38.851Z,19.60
2022-10-27T11:37:06.396Z,19.60
2022-10-27T11:39:54.736Z,19.70
2022-10-27T11:42:31.318Z,19.70
2022-10-27T11:45:04.799Z,19.80
2022-10-27T11:47:32.354Z,19.90
2022-10-27T11:50:00.662Z,20.00
2022-10-27T11:52:31.183Z,19.90
2022-10-27T11:54:58.802Z,20.00
2022-10-27T11:57:42.193Z,20.10
2022-10-27T12:00:21.565Z,20.10
2022-10-27T12:03:20.103Z,20.20
2022-10-27T12:05:54.064Z,20.40
2022-10-27T12:08:36.709Z,20.40
2022-10-27T12:11:22.342Z,20.50
2022-10-27T12:14:01.977Z,20.50
2022-10-27T12:16:48.050Z,20.60
2022-10-27T12:19:30.652Z,20.60
2022-10-27T12:22:16.972Z,20.70
2022-10-27T12:24:44.548Z,20.70
2022-10-27T12:27:20.923Z,20.80
2022-10-27T12:29:48.476Z,20.90
2022-10-27T12:32:16.049Z,20.90
2022-10-27T12:34:46.248Z,21.00
2022-10-27T12:37:25.961Z,21.00
2022-10-27T12:40:06.029Z,21.30
2022-10-27T12:42:57.690Z,21.30
2022-10-27T12:45:31.141Z,21.30
2022-10-27T12:48:07.274Z,21.30
2022-10-27T12:51:08.069Z,21.30
2022-10-27T12:53:53.482Z,21.30
2022-10-27T12:56:35.895Z,21.30
2022-10-27T12:59:12.409Z,21.50
2022-10-27T13:01:40.067Z,21.50
2022-10-27T13:04:26.016Z,21.50
2022-10-27T13:07:11.621Z,21.50
2022-10-27T13:10:00.349Z,21.60
2022-10-27T13:12:46.799Z,21.60
2022-10-27T13:15:24.441Z,21.60
2022-10-27T13:18:04.861Z,21.60
2022-10-27T13:21:09.375Z,21.60
2022-10-27T13:23:55.155Z,21.60
2022-10-27T13:26:38.584Z,21.60
2022-10-27T13:29:06.126Z,21.60
2022-10-27T13:31:33.670Z,21.60
2022-10-27T13:34:11.058Z,21.60
2022-10-27T13:36:39.370Z,21.60
2022-10-27T13:39:15.871Z,21.60
2022-10-27T13:42:01.216Z,21.60
2022-10-27T13:44:31.278Z,21.60
2022-10-27T13:47:05.413Z,21.80
2022-10-27T13:49:42.717Z,21.90
2022-10-27T13:52:10.253Z,21.80
2022-10-27T13:55:08.773Z,22.00
2022-10-27T13:57:42.264Z,22.00
2022-10-27T14:00:12.775Z,22.00
2022-10-27T14:03:04.958Z,21.90
2022-10-27T14:05:34.157Z,21.80
2022-10-27T14:08:01.659Z,21.80
2022-10-27T14:10:30.011Z,21.80
2022-10-27T14:12:57.605Z,21.70
2022-10-27T14:15:27.904Z,21.80
2022-10-27T14:17:56.200Z,22.00
2022-10-27T14:20:37.221Z,21.90
2022-10-27T14:23:07.408Z,21.90
2022-10-27T14:25:35.691Z,21.90
2022-10-27T14:28:09.242Z,21.80
2022-10-27T14:30:36.765Z,21.80
2022-10-27T14:33:25.487Z,21.80
2022-10-27T14:36:15.049Z,22.00
2022-10-27T14:38:45.369Z,22.00
2022-10-27T14:41:18.508Z,21.90
2022-10-27T14:43:46.043Z,21.90
2022-10-27T14:46:19.616Z,22.10
2022-10-27T14:48:53.471Z,22.00
2022-10-27T14:51:20.996Z,22.00
2022-10-27T14:53:49.327Z,21.90
2022-10-27T14:56:16.867Z,21.90
2022-10-27T14:58:53.373Z,21.90
2022-10-27T15:01:35.478Z,21.80
2022-10-27T15:04:00.695Z,21.80
2022-10-27T15:06:29.007Z,21.70
2022-10-27T15:08:56.578Z,21.70
2022-10-27T15:11:24.121Z,21.70
2022-10-27T15:13:51.668Z,21.70
2022-10-27T15:16:25.046Z,21.60
2022-10-27T15:18:50.277Z,21.60
2022-10-27T15:21:23.485Z,21.60
2022-10-27T15:23:51.386Z,21.50
2022-10-27T15:26:22.256Z,21.50
2022-10-27T15:28:49.707Z,21.50
2022-10-27T15:31:18.431Z,21.30
2022-10-27T15:33:45.962Z,21.40
2022-10-27T15:36:17.225Z,21.50
2022-10-27T15:38:44.814Z,21.50
2022-10-27T15:41:17.503Z,21.50
2022-10-27T15:43:43.079Z,21.40
2022-10-27T15:46:19.495Z,21.30
2022-10-27T15:48:47.022Z,21.30
2022-10-27T15:51:14.573Z,21.30
2022-10-27T15:53:45.264Z,21.20
2022-10-27T15:56:37.848Z,21.10
2022-10-27T15:59:20.472Z,21.10
2022-10-27T16:01:48.092Z,21.10
2022-10-27T16:04:30.646Z,21.10
2022-10-27T16:07:13.584Z,21.00
2022-10-27T16:09:41.161Z,21.00
2022-10-27T16:12:17.242Z,20.90
2022-10-27T16:14:49.367Z,21.10
2022-10-27T16:17:13.132Z,20.90
2022-10-27T16:19:40.657Z,20.90
2022-10-27T16:22:16.824Z,20.90
2022-10-27T16:24:44.370Z,20.80
2022-10-27T16:27:26.625Z,20.70
2022-10-27T16:29:57.032Z,20.70
2022-10-27T16:32:24.579Z,20.60
2022-10-27T16:34:52.161Z,20.80
2022-10-27T16:37:19.685Z,20.80
2022-10-27T16:39:47.234Z,20.70
2022-10-27T16:42:14.829Z,20.60
2022-10-27T16:44:42.393Z,20.60
2022-10-27T16:47:15.666Z,20.50
2022-10-27T16:49:44.151Z,20.70
2022-10-27T16:52:11.671Z,20.60
2022-10-27T16:54:39.207Z,20.50
2022-10-27T16:57:06.821Z,20.40
2022-10-27T16:59:34.342Z,20.30
2022-10-27T17:02:02.907Z,20.20
2022-10-27T17:04:30.291Z,20.20
2022-10-27T17:06:57.816Z,20.10
2022-10-27T17:09:25.360Z,20.30
2022-10-27T17:11:52.944Z,20.20
2022-10-27T17:14:20.456Z,20.40
2022-10-27T17:16:47.994Z,20.30
2022-10-27T17:19:15.567Z,20.10
2022-10-27T17:21:43.100Z,20.00
2022-10-27T17:24:10.643Z,19.80
2022-10-27T17:26:38.996Z,19.60
2022-10-27T17:29:06.522Z,19.60
2022-10-27T17:31:34.055Z,19.50
2022-10-27T17:34:02.379Z,19.30
2022-10-27T17:36:29.909Z,19.30
2022-10-27T17:38:57.434Z,19.20
2022-10-27T17:41:25.822Z,19.00
2022-10-27T17:43:53.307Z,19.00
2022-10-27T17:46:20.872Z,19.00
2022-10-27T17:48:48.522Z,18.90
2022-10-27T17:51:15.986Z,18.80
2022-10-27T17:53:43.541Z,18.80
2022-10-27T17:56:11.116Z,18.70
2022-10-27T17:58:38.662Z,18.60
2022-10-27T18:01:08.953Z,18.60
2022-10-27T18:03:36.445Z,18.50
2022-10-27T18:06:03.977Z,18.50
2022-10-27T18:08:32.280Z,18.40
2022-10-27T18:11:05.575Z,18.30
2022-10-27T18:13:35.835Z,18.40
2022-10-27T18:16:03.359Z,18.30
2022-10-27T18:18:30.937Z,18.30
2022-10-27T18:20:58.508Z,18.30
2022-10-27T18:23:26.181Z,18.20
2022-10-27T18:25:54.735Z,18.10
2022-10-27T18:28:22.268Z,18.10
2022-10-27T18:30:49.805Z,18.00
2022-10-27T18:33:18.128Z,17.90
2022-10-27T18:35:45.654Z,17.90
2022-10-27T18:38:13.199Z,17.80
2022-10-27T18:40:41.818Z,17.80
2022-10-27T18:43:09.351Z,17.80
2022-10-27T18:45:36.885Z,17.80
2022-10-27T18:48:05.287Z,17.70
2022-10-27T18:50:32.842Z,17.70
2022-10-27T18:53:00.377Z,17.60
2022-10-27T18:55:29.825Z,17.60
2022-10-27T18:57:56.276Z,17.60
2022-10-27T19:00:23.808Z,17.60
2022-10-27T19:02:52.685Z,17.80
2022-10-27T19:05:20.070Z,17.80
2022-10-27T19:07:47.603Z,17.70
2022-10-27T19:10:15.169Z,17.70
2022-10-27T19:12:42.681Z,17.60
2022-10-27T19:15:10.471Z,17.60
2022-10-27T19:17:38.009Z,17.50
2022-10-27T19:20:05.573Z,17.60
2022-10-27T19:22:33.140Z,17.80
2022-10-27T19:25:01.490Z,17.70
2022-10-27T19:27:29.030Z,17.70
2022-10-27T19:29:56.556Z,17.60
2022-10-27T19:32:24.121Z,17.70
2022-10-27T19:34:51.885Z,17.50
2022-10-27T19:37:19.461Z,17.40
2022-10-27T19:39:47.075Z,17.20
2022-10-27T19:42:14.592Z,17.20
2022-10-27T19:44:42.182Z,17.10
2022-10-27T19:47:09.789Z,17.10
2022-10-27T19:49:38.069Z,16.90
2022-10-27T19:52:05.606Z,16.90
2022-10-27T19:54:33.196Z,16.90
2022-10-27T19:57:00.729Z,16.80
2022-10-27T19:59:28.275Z,16.70
2022-10-27T20:01:56.778Z,16.60
2022-10-27T20:04:24.166Z,16.60
2022-10-27T20:06:51.723Z,16.60
2022-10-27T20:09:19.315Z,16.60
2022-10-27T20:11:46.846Z,16.60
2022-10-27T20:14:14.404Z,16.60
2022-10-27T20:16:41.979Z,16.80
2022-10-27T20:19:14.951Z,17.00
2022-10-27T20:21:42.495Z,17.00
2022-10-27T20:24:12.611Z,17.10
2022-10-27T20:26:40.241Z,17.00
2022-10-27T20:29:08.437Z,16.70
2022-10-27T20:31:36.011Z,16.70
2022-10-27T20:34:03.535Z,16.60
2022-10-27T20:36:31.824Z,16.50
2022-10-27T20:38:59.418Z,16.50
2022-10-27T20:41:26.952Z,16.50
2022-10-27T20:43:56.929Z,16.70
2022-10-27T20:46:25.281Z,16.50
2022-10-27T20:48:52.830Z,16.50
2022-10-27T20:51:20.362Z,16.40
2022-10-27T20:53:47.955Z,16.40
2022-10-27T20:56:16.414Z,16.30
2022-10-27T20:58:43.852Z,16.20
2022-10-27T21:01:32.703Z,16.20
2022-10-27T21:04:06.036Z,16.20
2022-10-27T21:06:33.799Z,16.20
2022-10-27T21:09:01.311Z,16.20
2022-10-27T21:11:29.624Z,16.20
2022-10-27T21:13:57.165Z,16.10
2022-10-27T21:16:24.760Z,16.20
2022-10-27T21:18:52.322Z,16.10
2022-10-27T21:21:19.854Z,16.10
2022-10-27T21:23:47.469Z,16.10
2022-10-27T21:26:15.014Z,16.30
2022-10-27T21:28:42.559Z,16.30
2022-10-27T21:31:10.153Z,16.30
2022-10-27T21:33:38.466Z,16.50
2022-10-27T21:36:06.070Z,16.50
2022-10-27T21:38:33.652Z,16.50
2022-10-27T21:41:01.965Z,16.50
2022-10-27T21:43:29.509Z,16.50
2022-10-27T21:45:57.361Z,16.40
2022-10-27T21:48:25.658Z,16.20
2022-10-27T21:50:53.208Z,16.20
2022-10-27T21:53:20.793Z,16.20
2022-10-27T21:55:54.553Z,16.10
2022-10-27T21:58:22.844Z,16.10
2022-10-27T22:00:50.471Z,16.00
2022-10-27T22:03:17.974Z,16.10
2022-10-27T22:05:45.499Z,16.10
2022-10-27T22:08:14.762Z,16.00
2022-10-27T22:10:42.211Z,16.00
2022-10-27T22:13:09.758Z,16.00
2022-10-27T22:15:37.321Z,15.90
2022-10-27T22:18:04.867Z,15.90
2022-10-27T22:20:32.407Z,15.90
2022-10-27T22:23:00.290Z,15.80
2022-10-27T22:25:27.810Z,15.80
2022-10-27T22:27:56.104Z,15.80
2022-10-27T22:30:24.611Z,15.80
2022-10-27T22:32:52.294Z,15.80
2022-10-27T22:35:19.700Z,15.80
2022-10-27T22:37:48.318Z,15.80
2022-10-27T22:40:15.884Z,15.80
2022-10-27T22:42:44.158Z,15.70
2022-10-27T22:45:11.805Z,15.70
2022-10-27T22:47:39.345Z,15.70
2022-10-27T22:50:07.649Z,15.70
2022-10-27T22:52:35.517Z,15.70
2022-10-27T22:55:03.053Z,15.70
2022-10-27T22:57:30.580Z,15.60
2022-10-27T22:59:58.193Z,15.50
2022-10-27T23:02:25.828Z,15.50
2022-10-27T23:04:53.307Z,15.60
2022-10-27T23:07:20.906Z,15.60
2022-10-27T23:09:49.372Z,15.60
2022-10-27T23:12:16.791Z,15.70
2022-10-27T23:14:46.474Z,15.70
2022-10-27T23:17:11.890Z,15.70
2022-10-27T23:19:40.192Z,15.70
2022-10-27T23:22:08.023Z,15.70
2022-10-27T23:24:35.565Z,15.70
2022-10-27T23:27:03.117Z,15.60
2022-10-27T23:29:30.695Z,15.70
2022-10-27T23:31:58.194Z,15.60
2022-10-27T23:34:25.746Z,15.60
2022-10-27T23:36:53.344Z,15.60
2022-10-27T23:39:20.884Z,15.60
2022-10-27T23:41:48.412Z,15.60
2022-10-27T23:44:16.005Z,15.60
2022-10-27T23:46:43.532Z,15.70
2022-10-27T23:49:11.067Z,15.70
2022-10-27T23:51:39.402Z,15.80
2022-10-27T23:54:06.941Z,15.70
2022-10-27T23:56:34.453Z,15.80
2022-10-27T23:59:02.056Z,15.80
